createdAt,value
2022-07-27T00:01:01.233Z,95473.1
2022-07-27T00:02:03.600Z,95474.6
2022-07-27T00:03:05.769Z,95473.3
2022-07-27T00:04:08.076Z,95475.1
2022-07-27T00:05:10.373Z,95475.1
2022-07-27T00:06:12.584Z,95473.2
2022-07-27T00:07:15.066Z,95470.6
2022-07-27T00:08:17.274Z,95469.2
2022-07-27T00:09:19.740Z,95467.1
2022-07-27T00:10:21.669Z,95461.3
2022-07-27T00:11:23.864Z,95459.3
2022-07-27T00:12:26.055Z,95462.9
2022-07-27T00:13:28.522Z,95456.2
2022-07-27T00:14:31.737Z,95455.5
2022-07-27T00:15:33.990Z,95454.9
2022-07-27T00:16:36.618Z,95456.7
2022-07-27T00:17:38.977Z,95457.1
2022-07-27T00:18:40.914Z,95455.5
2022-07-27T00:19:43.394Z,95455.7
2022-07-27T00:20:45.590Z,95456.5
2022-07-27T00:21:47.506Z,95455
2022-07-27T00:22:49.998Z,95457.1
2022-07-27T00:23:52.491Z,95458.1
2022-07-27T00:24:54.397Z,95448.5
2022-07-27T00:25:56.858Z,95453.4
2022-07-27T00:26:58.780Z,95446.9
2022-07-27T00:28:00.975Z,95447.3
2022-07-27T00:29:02.908Z,95443
2022-07-27T00:30:05.104Z,95446.4
2022-07-27T00:31:07.681Z,95446.4
2022-07-27T00:34:20.011Z,95445.7
2022-07-27T00:35:22.206Z,95445.5
2022-07-27T00:36:24.671Z,95442.1
2022-07-27T00:37:26.632Z,95449.4
2022-07-27T00:38:29.105Z,95444
2022-07-27T00:39:31.300Z,95446
2022-07-27T00:40:33.775Z,95450
2022-07-27T00:41:35.682Z,95446
2022-07-27T00:42:37.873Z,95444.5
2022-07-27T00:43:40.345Z,95441.4
2022-07-27T00:44:42.557Z,95435.8
2022-07-27T00:45:44.768Z,95436.5
2022-07-27T00:46:47.606Z,95436.8
2022-07-27T00:48:55.328Z,95434.2
2022-07-27T00:49:57.718Z,95433
2022-07-27T00:50:59.624Z,95430.8
2022-07-27T00:52:01.832Z,95427.8
2022-07-27T00:53:04.069Z,95427.8
2022-07-27T00:54:06.546Z,95423.3
2022-07-27T00:55:09.016Z,95425
2022-07-27T00:56:11.494Z,95422.1
2022-07-27T00:57:13.684Z,95422.8
2022-07-27T00:58:16.169Z,95422.9
2022-07-27T00:59:18.067Z,95423.9
2022-07-27T01:00:24.258Z,95425.2
2022-07-27T01:01:27.353Z,95427.2
2022-07-27T01:02:30.608Z,95427.7
2022-07-27T01:05:48.536Z,95429.8
2022-07-27T01:06:51.615Z,95432.4
2022-07-27T01:07:53.531Z,95430.2
2022-07-27T01:08:56.016Z,95426.8
2022-07-27T01:09:58.866Z,95430.3
2022-07-27T01:11:02.283Z,95430.8
2022-07-27T01:12:04.769Z,95431.1
2022-07-27T01:14:12.599Z,95430
2022-07-27T01:15:15.077Z,95426.9
2022-07-27T01:16:17.327Z,95427.6
2022-07-27T01:17:19.597Z,95423.1
2022-07-27T01:18:21.803Z,95420.4
2022-07-27T01:19:23.733Z,95422.8
2022-07-27T01:20:25.646Z,95414.9
2022-07-27T01:22:32.579Z,95410.8
2022-07-27T01:23:35.055Z,95409.3
2022-07-27T01:24:37.257Z,95408.1
2022-07-27T01:25:39.765Z,95405.5
2022-07-27T01:26:41.957Z,95405.3
2022-07-27T01:27:44.160Z,95402.7
2022-07-27T01:28:46.638Z,95402.2
2022-07-27T01:29:49.119Z,95405.8
2022-07-27T01:30:51.689Z,95401.7
2022-07-27T01:31:54.256Z,95401.7
2022-07-27T01:32:56.461Z,95403.7
2022-07-27T01:33:58.657Z,95402.1
2022-07-27T01:35:00.867Z,95401.9
2022-07-27T01:36:03.337Z,95401.9
2022-07-27T01:37:04.977Z,95397.9
2022-07-27T01:38:06.909Z,95396
2022-07-27T01:39:09.853Z,95393
2022-07-27T01:40:13.003Z,95391.5
2022-07-27T01:41:15.203Z,95389.4
2022-07-27T01:42:17.384Z,95389.3
2022-07-27T01:43:19.847Z,95389
2022-07-27T01:44:21.763Z,95384
2022-07-27T01:45:23.935Z,95382.7
2022-07-27T01:46:26.470Z,95378.3
2022-07-27T01:47:29.078Z,95377.7
2022-07-27T01:48:31.906Z,95374
2022-07-27T01:49:34.181Z,95377.9
2022-07-27T01:50:36.668Z,95374
2022-07-27T01:51:39.137Z,95372.2
2022-07-27T01:52:41.617Z,95374
2022-07-27T01:53:44.079Z,95370.2
2022-07-27T01:54:46.005Z,95368.3
2022-07-27T01:55:48.197Z,95367.8
2022-07-27T01:56:50.682Z,95365.9
2022-07-27T01:57:52.874Z,95365.6
2022-07-27T01:58:55.355Z,95363.9
2022-07-27T01:59:57.273Z,95362.4
2022-07-27T02:00:59.472Z,95363.6
2022-07-27T02:02:02.080Z,95363.5
2022-07-27T02:03:04.364Z,95364.6
2022-07-27T02:04:05.985Z,95368.1
2022-07-27T02:05:08.071Z,95367
2022-07-27T02:06:10.493Z,95367
2022-07-27T02:07:12.971Z,95370.5
2022-07-27T02:08:15.444Z,95374.8
2022-07-27T02:09:17.929Z,95375.5
2022-07-27T02:10:20.134Z,95368.3
2022-07-27T02:11:22.612Z,95371.4
2022-07-27T02:12:24.809Z,95377.6
2022-07-27T02:13:26.443Z,95371.4
2022-07-27T02:14:29.304Z,95377.2
2022-07-27T02:16:36.992Z,95385.3
2022-07-27T02:19:51.395Z,95393.7
2022-07-27T02:20:53.866Z,95394.2
2022-07-27T02:21:56.335Z,95391.6
2022-07-27T02:22:58.539Z,95396.5
2022-07-27T02:24:00.708Z,95393.9
2022-07-27T02:25:02.937Z,95395
2022-07-27T02:26:05.122Z,95400.1
2022-07-27T02:27:07.326Z,95402.4
2022-07-27T02:28:09.510Z,95401.4
2022-07-27T02:29:13.601Z,95398.3
2022-07-27T02:31:21.782Z,95402.3
2022-07-27T02:32:24.232Z,95402.8
2022-07-27T02:33:26.521Z,95405.7
2022-07-27T02:34:28.770Z,95406.1
2022-07-27T02:35:30.964Z,95405.3
2022-07-27T02:36:33.158Z,95404.7
2022-07-27T02:38:40.626Z,95411.6
2022-07-27T02:39:43.125Z,95406.9
2022-07-27T02:40:45.030Z,95402
2022-07-27T02:41:46.937Z,95401.9
2022-07-27T02:42:49.413Z,95402.1
2022-07-27T02:43:51.614Z,95400.6
2022-07-27T02:44:53.834Z,95396.5
2022-07-27T02:45:56.613Z,95398.2
2022-07-27T02:46:58.882Z,95399.6
2022-07-27T02:48:01.367Z,95401.1
2022-07-27T02:49:04.241Z,95401.8
2022-07-27T02:50:06.906Z,95399.5
2022-07-27T02:51:08.829Z,95400
2022-07-27T02:52:11.042Z,95401.6
2022-07-27T02:53:13.508Z,95400.6
2022-07-27T02:54:15.988Z,95397.6
2022-07-27T02:55:18.204Z,95405.5
2022-07-27T02:57:25.747Z,95402.4
2022-07-27T02:58:28.215Z,95405.1
2022-07-27T02:59:30.423Z,95401.6
2022-07-27T03:00:32.615Z,95405.1
2022-07-27T03:01:35.437Z,95405.9
2022-07-27T03:02:38.030Z,95404.5
2022-07-27T03:03:40.218Z,95413.1
2022-07-27T03:04:43.043Z,95408.9
2022-07-27T03:05:45.119Z,95410
2022-07-27T03:06:47.300Z,95411.3
2022-07-27T03:07:49.764Z,95409.5
2022-07-27T03:08:51.983Z,95410.4
2022-07-27T03:09:54.461Z,95412.6
2022-07-27T03:10:56.667Z,95414.4
2022-07-27T03:11:58.604Z,95411.8
2022-07-27T03:13:01.092Z,95415.9
2022-07-27T03:14:03.300Z,95417.2
2022-07-27T03:15:05.251Z,95414.8
2022-07-27T03:16:07.740Z,95415.2
2022-07-27T03:17:10.050Z,95417.4
2022-07-27T03:18:12.520Z,95422.3
2022-07-27T03:19:15.785Z,95417.9
2022-07-27T03:20:18.253Z,95417.2
2022-07-27T03:21:22.709Z,95420.8
2022-07-27T03:22:24.336Z,95418.4
2022-07-27T03:23:26.813Z,95419.3
2022-07-27T03:24:29.009Z,95420.6
2022-07-27T03:25:31.492Z,95416.3
2022-07-27T03:26:33.385Z,95417.5
2022-07-27T03:27:35.866Z,95415.9
2022-07-27T03:28:38.336Z,95416.6
2022-07-27T03:29:39.977Z,95415.7
2022-07-27T03:30:42.824Z,95412.3
2022-07-27T03:31:45.394Z,95412
2022-07-27T03:32:49.510Z,95414.2
2022-07-27T03:33:51.715Z,95415.2
2022-07-27T03:34:53.354Z,95413.9
2022-07-27T03:35:55.385Z,95409.9
2022-07-27T03:36:57.604Z,95410.2
2022-07-27T03:38:00.082Z,95408.2
2022-07-27T03:40:07.284Z,95412.5
2022-07-27T03:41:09.487Z,95410.9
2022-07-27T03:42:12.130Z,95407.8
2022-07-27T03:43:14.606Z,95410.3
2022-07-27T03:44:16.528Z,95407.5
2022-07-27T03:45:18.712Z,95405.9
2022-07-27T03:46:21.594Z,95406.2
2022-07-27T03:47:23.966Z,95407.2
2022-07-27T03:48:25.897Z,95408.7
2022-07-27T03:49:28.677Z,95409.3
2022-07-27T03:50:31.012Z,95408.8
2022-07-27T03:51:33.528Z,95413.3
2022-07-27T03:52:35.989Z,95409.2
2022-07-27T03:53:37.920Z,95411.1
2022-07-27T03:54:40.382Z,95402.1
2022-07-27T03:55:42.858Z,95399
2022-07-27T03:56:45.055Z,95398.2
2022-07-27T03:57:46.988Z,95397.4
2022-07-27T03:58:49.164Z,95396
2022-07-27T03:59:51.074Z,95388
2022-07-27T04:00:53.511Z,95388.5
2022-07-27T04:01:55.511Z,95390.3
2022-07-27T04:02:58.424Z,95381.3
2022-07-27T04:04:01.610Z,95383.8
2022-07-27T04:05:04.075Z,95385.3
2022-07-27T04:06:06.291Z,95380.6
2022-07-27T04:07:08.504Z,95386
2022-07-27T04:08:10.703Z,95385.9
2022-07-27T04:10:19.149Z,95383.8
2022-07-27T04:12:32.450Z,95382.8
2022-07-27T04:13:39.221Z,95381.3
2022-07-27T04:14:40.845Z,95380.8
2022-07-27T04:15:43.039Z,95380.9
2022-07-27T04:16:45.794Z,95383.4
2022-07-27T04:18:53.315Z,95381.9
2022-07-27T04:19:55.531Z,95386.3
2022-07-27T04:20:57.998Z,95381.3
2022-07-27T04:21:59.946Z,95383.1
2022-07-27T04:23:02.421Z,95387.7
2022-07-27T04:24:04.931Z,95386.6
2022-07-27T04:25:07.125Z,95384.4
2022-07-27T04:26:10.009Z,95386.1
2022-07-27T04:27:12.201Z,95384.1
2022-07-27T04:28:14.678Z,95387.3
2022-07-27T04:30:22.108Z,95386.9
2022-07-27T04:31:25.197Z,95385.3
2022-07-27T04:32:27.420Z,95385.5
2022-07-27T04:33:29.900Z,95386.2
2022-07-27T04:34:31.822Z,95382.2
2022-07-27T04:35:34.015Z,95386.5
2022-07-27T04:36:36.214Z,95383.7
2022-07-27T04:37:38.698Z,95384.5
2022-07-27T04:38:41.164Z,95388.5
2022-07-27T04:39:43.635Z,95380.6
2022-07-27T04:40:46.102Z,95381.6
2022-07-27T04:41:48.026Z,95385.9
2022-07-27T04:42:51.318Z,95385.2
2022-07-27T04:43:53.797Z,95383.6
2022-07-27T04:44:56.303Z,95385.7
2022-07-27T04:45:58.075Z,95385.6
2022-07-27T04:47:00.120Z,95384.9
2022-07-27T04:48:02.328Z,95385.7
2022-07-27T04:49:04.784Z,95378.1
2022-07-27T04:50:07.112Z,95374.9
2022-07-27T04:51:10.084Z,95369
2022-07-27T04:52:12.575Z,95375.7
2022-07-27T04:53:14.508Z,95374.3
2022-07-27T04:54:16.438Z,95377.2
2022-07-27T04:55:18.433Z,95375.2
2022-07-27T04:56:20.645Z,95380.5
2022-07-27T04:57:22.839Z,95382.1
2022-07-27T04:58:25.403Z,95383.5
2022-07-27T04:59:27.328Z,95383.5
2022-07-27T05:00:29.530Z,95386.2
2022-07-27T05:02:37.016Z,95384.3
2022-07-27T05:03:39.718Z,95387.9
2022-07-27T05:04:42.295Z,95387.9
2022-07-27T05:06:49.759Z,95386.2
2022-07-27T05:07:51.979Z,95387.2
2022-07-27T05:08:53.902Z,95386.2
2022-07-27T05:09:56.214Z,95386.6
2022-07-27T05:10:58.454Z,95385.9
2022-07-27T05:12:00.657Z,95386.7
2022-07-27T05:14:08.565Z,95387.6
2022-07-27T05:15:11.052Z,95390
2022-07-27T05:16:13.551Z,95393.8
2022-07-27T05:17:15.631Z,95394.5
2022-07-27T05:18:17.533Z,95395.9
2022-07-27T05:19:19.734Z,95395.1
2022-07-27T05:20:21.947Z,95399.7
2022-07-27T05:21:24.149Z,95395.7
2022-07-27T05:22:26.090Z,95396.9
2022-07-27T05:23:28.294Z,95396.2
2022-07-27T05:24:30.228Z,95393.6
2022-07-27T05:25:32.434Z,95395.8
2022-07-27T05:26:34.062Z,95396.9
2022-07-27T05:27:36.266Z,95396.9
2022-07-27T05:28:38.752Z,95399.2
2022-07-27T05:29:40.668Z,95403.7
2022-07-27T05:30:42.866Z,95409.9
2022-07-27T05:31:45.339Z,95406.6
2022-07-27T05:32:47.364Z,95408.3
2022-07-27T05:34:56.993Z,95412.8
2022-07-27T05:35:58.921Z,95417.4
2022-07-27T05:37:01.117Z,95417.4
2022-07-27T05:38:03.602Z,95415.7
2022-07-27T05:40:14.202Z,95418.1
2022-07-27T05:41:16.409Z,95414
2022-07-27T05:42:18.608Z,95420.4
2022-07-27T05:43:20.537Z,95416.9
2022-07-27T05:44:23.019Z,95416.6
2022-07-27T05:45:25.723Z,95415
2022-07-27T05:47:34.165Z,95416.1
2022-07-27T05:48:36.655Z,95417.3
2022-07-27T05:49:38.667Z,95416.8
2022-07-27T05:50:40.615Z,95419
2022-07-27T05:51:42.549Z,95418.3
2022-07-27T05:52:45.042Z,95417.8
2022-07-27T05:53:46.989Z,95416.7
2022-07-27T05:54:49.496Z,95416.6
2022-07-27T05:56:56.132Z,95418.4
2022-07-27T05:57:58.046Z,95421.3
2022-07-27T06:00:05.517Z,95421.5
2022-07-27T06:01:08.342Z,95420.1
2022-07-27T06:02:10.906Z,95420.2
2022-07-27T06:03:13.305Z,95419.1
2022-07-27T06:04:16.392Z,95413.6
2022-07-27T06:05:19.034Z,95418.4
2022-07-27T06:06:20.387Z,95415
2022-07-27T06:07:22.296Z,95420.4
2022-07-27T06:08:24.501Z,95420
2022-07-27T06:09:26.708Z,95426.2
2022-07-27T06:10:29.182Z,95429
2022-07-27T06:11:31.415Z,95428.2
2022-07-27T06:12:33.901Z,95427.4
2022-07-27T06:13:36.396Z,95429.2
2022-07-27T06:14:38.596Z,95431.5
2022-07-27T06:15:40.846Z,95431
2022-07-27T06:16:43.456Z,95430.3
2022-07-27T06:17:45.795Z,95427.8
2022-07-27T06:18:48.005Z,95430
2022-07-27T06:19:49.948Z,95432.5
2022-07-27T06:20:52.154Z,95430
2022-07-27T06:21:55.755Z,95430
2022-07-27T06:22:57.402Z,95425.6
2022-07-27T06:23:59.885Z,95427.4
2022-07-27T06:25:01.798Z,95428.1
2022-07-27T06:26:04.118Z,95429.2
2022-07-27T06:27:06.328Z,95428.7
2022-07-27T06:28:08.862Z,95429.2
2022-07-27T06:29:13.662Z,95427.4
2022-07-27T06:30:17.047Z,95425.5
2022-07-27T06:31:21.410Z,95425.6
2022-07-27T06:32:25.905Z,95427.8
2022-07-27T06:33:30.284Z,95427.1
2022-07-27T06:35:43.879Z,95426.8
2022-07-27T06:36:48.511Z,95425.7
2022-07-27T06:37:51.005Z,95426.5
2022-07-27T06:38:53.496Z,95421.8
2022-07-27T06:39:55.400Z,95421
2022-07-27T06:40:57.338Z,95423.2
2022-07-27T06:41:59.494Z,95417.6
2022-07-27T06:43:01.980Z,95419.6
2022-07-27T06:44:03.931Z,95420.3
2022-07-27T06:45:06.423Z,95422.5
2022-07-27T06:46:08.885Z,95424.4
2022-07-27T06:47:11.749Z,95425.3
2022-07-27T06:48:14.308Z,95423.5
2022-07-27T06:49:18.855Z,95424.6
2022-07-27T06:50:21.246Z,95419.4
2022-07-27T06:51:23.461Z,95420.6
2022-07-27T06:52:25.951Z,95423.8
2022-07-27T06:54:34.409Z,95418.4
2022-07-27T06:55:36.613Z,95419.3
2022-07-27T06:56:38.792Z,95420
2022-07-27T06:57:41.275Z,95422.3
2022-07-27T06:58:43.746Z,95425.2
2022-07-27T06:59:46.228Z,95423
2022-07-27T07:00:48.736Z,95424.9
2022-07-27T07:01:51.102Z,95423.1
2022-07-27T07:02:53.300Z,95423.4
2022-07-27T07:03:55.919Z,95421
2022-07-27T07:04:58.253Z,95423.4
2022-07-27T07:06:00.753Z,95422.3
2022-07-27T07:08:07.675Z,95419
2022-07-27T07:09:12.704Z,95417.8
2022-07-27T07:10:15.757Z,95417.3
2022-07-27T07:11:17.690Z,95416.9
2022-07-27T07:12:19.897Z,95412.8
2022-07-27T07:13:21.871Z,95413.7
2022-07-27T07:14:23.231Z,95415.2
2022-07-27T07:15:25.170Z,95412.6
2022-07-27T07:16:27.976Z,95412.1
2022-07-27T07:17:30.681Z,95411.7
2022-07-27T07:18:33.161Z,95416.2
2022-07-27T07:19:35.442Z,95411.2
2022-07-27T07:20:37.349Z,95413.1
2022-07-27T07:21:39.578Z,95412.9
2022-07-27T07:22:42.074Z,95414.9
2022-07-27T07:23:43.716Z,95411.6
2022-07-27T07:24:45.920Z,95411.3
2022-07-27T07:25:48.401Z,95410.6
2022-07-27T07:26:50.353Z,95411.9
2022-07-27T07:27:52.856Z,95412.1
2022-07-27T07:28:55.328Z,95413.3
2022-07-27T07:29:57.280Z,95414.2
2022-07-27T07:31:00.746Z,95414.1
2022-07-27T07:32:03.300Z,95408.1
2022-07-27T07:33:05.239Z,95409.9
2022-07-27T07:34:07.178Z,95409.4
2022-07-27T07:35:09.676Z,95410.8
2022-07-27T07:37:16.904Z,95406
2022-07-27T07:38:19.128Z,95408.5
2022-07-27T07:39:21.326Z,95408.4
2022-07-27T07:41:28.272Z,95409
2022-07-27T07:42:30.495Z,95408.9
2022-07-27T07:43:32.964Z,95408
2022-07-27T07:44:35.171Z,95410.8
2022-07-27T07:45:37.111Z,95411.1
2022-07-27T07:47:44.343Z,95407.9
2022-07-27T07:48:47.073Z,95410
2022-07-27T07:49:49.309Z,95409.6
2022-07-27T07:50:54.780Z,95413.4
2022-07-27T07:51:56.708Z,95414.6
2022-07-27T07:52:58.672Z,95414.4
2022-07-27T07:54:01.139Z,95417
2022-07-27T07:55:03.347Z,95416.4
2022-07-27T07:56:05.606Z,95415.1
2022-07-27T07:57:07.844Z,95419.3
2022-07-27T07:58:10.313Z,95421.5
2022-07-27T07:59:14.106Z,95424.1
2022-07-27T08:00:17.062Z,95423.8
2022-07-27T08:01:19.851Z,95424.9
2022-07-27T08:02:22.496Z,95422
2022-07-27T08:03:25.152Z,95422.1
2022-07-27T08:04:27.504Z,95419
2022-07-27T08:05:29.732Z,95422
2022-07-27T08:06:31.653Z,95427.7
2022-07-27T08:07:33.874Z,95422.6
2022-07-27T08:08:36.099Z,95426.4
2022-07-27T08:09:38.846Z,95427.3
2022-07-27T08:10:41.351Z,95428.5
2022-07-27T08:11:43.839Z,95430.4
2022-07-27T08:12:46.038Z,95429.9
2022-07-27T08:13:48.548Z,95429.2
2022-07-27T08:14:50.736Z,95424.8
2022-07-27T08:15:53.705Z,95428
2022-07-27T08:16:56.042Z,95427.5
2022-07-27T08:17:58.677Z,95424
2022-07-27T08:19:01.164Z,95424.1
2022-07-27T08:20:03.355Z,95428.2
2022-07-27T08:21:05.527Z,95428.9
2022-07-27T08:22:07.711Z,95426.8
2022-07-27T08:23:10.201Z,95430.1
2022-07-27T08:24:12.696Z,95430.1
2022-07-27T08:25:15.197Z,95427.5
2022-07-27T08:26:17.695Z,95432.2
2022-07-27T08:27:20.167Z,95426.7
2022-07-27T08:28:22.228Z,95426.6
2022-07-27T08:30:34.129Z,95430.8
2022-07-27T08:32:41.923Z,95428.2
2022-07-27T08:33:43.866Z,95427.9
2022-07-27T08:34:45.772Z,95429.4
2022-07-27T08:35:47.718Z,95426.6
2022-07-27T08:36:49.937Z,95424.9
2022-07-27T08:37:52.171Z,95424.3
2022-07-27T08:38:54.644Z,95425.3
2022-07-27T08:41:01.848Z,95430.5
2022-07-27T08:42:04.347Z,95425.6
2022-07-27T08:43:07.018Z,95426.9
2022-07-27T08:44:10.115Z,95426.2
2022-07-27T08:46:17.865Z,95425.8
2022-07-27T08:47:20.175Z,95428.5
2022-07-27T08:48:22.369Z,95427.6
2022-07-27T08:50:29.313Z,95421.3
2022-07-27T08:51:31.528Z,95424.8
2022-07-27T08:52:34.008Z,95426.6
2022-07-27T08:54:41.488Z,95423.3
2022-07-27T08:55:43.424Z,95428
2022-07-27T08:56:45.765Z,95425.3
2022-07-27T08:57:47.736Z,95427.6
2022-07-27T08:58:49.948Z,95427.8
2022-07-27T08:59:53.449Z,95422.8
2022-07-27T09:00:55.925Z,95425.4
2022-07-27T09:01:58.523Z,95426.9
2022-07-27T09:03:01.306Z,95427.1
2022-07-27T09:04:03.451Z,95428.9
2022-07-27T09:05:05.977Z,95430.3
2022-07-27T09:06:08.270Z,95430.8
2022-07-27T09:07:10.752Z,95436.2
2022-07-27T09:08:13.254Z,95435.3
2022-07-27T09:09:17.128Z,95437.4
2022-07-27T09:10:18.863Z,95439.4
2022-07-27T09:11:21.215Z,95436.8
2022-07-27T09:12:23.853Z,95441.8
2022-07-27T09:13:26.353Z,95439.7
2022-07-27T09:14:28.600Z,95440.8
2022-07-27T09:18:46.220Z,95448.1
2022-07-27T09:19:48.733Z,95448.1
2022-07-27T09:20:50.929Z,95445.5
2022-07-27T09:21:52.859Z,95444.9
2022-07-27T09:22:55.066Z,95442.5
2022-07-27T09:23:57.293Z,95443.5
2022-07-27T09:24:59.515Z,95439.8
2022-07-27T09:27:07.005Z,95441.2
2022-07-27T09:28:08.920Z,95440.9
2022-07-27T09:29:13.057Z,95436.6
2022-07-27T09:30:16.221Z,95438.4
2022-07-27T09:31:19.240Z,95441.6
2022-07-27T09:32:21.590Z,95442.6
2022-07-27T09:33:23.788Z,95439.6
2022-07-27T09:34:25.736Z,95440.1
2022-07-27T09:35:28.211Z,95440.8
2022-07-27T09:36:30.722Z,95441.3
2022-07-27T09:37:32.923Z,95443.3
2022-07-27T09:38:35.156Z,95440.6
2022-07-27T09:39:37.402Z,95444.3
2022-07-27T09:40:39.782Z,95445.9
2022-07-27T09:41:41.903Z,95444
2022-07-27T09:45:59.393Z,95449.9
2022-07-27T09:47:02.492Z,95448.6
2022-07-27T09:48:04.715Z,95446.8
2022-07-27T09:49:08.187Z,95446.6
2022-07-27T09:50:14.609Z,95447.9
2022-07-27T09:52:22.145Z,95447.6
2022-07-27T09:54:29.362Z,95447
2022-07-27T09:55:31.025Z,95442.1
2022-07-27T09:56:33.523Z,95441.8
2022-07-27T09:57:36.041Z,95441.1
2022-07-27T09:58:38.529Z,95438.7
2022-07-27T09:59:40.742Z,95441.1
2022-07-27T10:00:43.256Z,95438.7
2022-07-27T10:02:50.797Z,95439.9
2022-07-27T10:03:53.030Z,95442.4
2022-07-27T10:04:55.909Z,95442.6
2022-07-27T10:05:58.761Z,95444.2
2022-07-27T10:08:05.943Z,95446.1
2022-07-27T10:09:08.147Z,95443.3
2022-07-27T10:10:10.622Z,95443.4
2022-07-27T10:11:12.261Z,95445.4
2022-07-27T10:12:14.738Z,95441.1
2022-07-27T10:13:19.884Z,95442.6
2022-07-27T10:14:22.349Z,95442.8
2022-07-27T10:15:24.564Z,95441.8
2022-07-27T10:16:27.364Z,95445.4
2022-07-27T10:17:30.095Z,95441.5
2022-07-27T10:18:33.403Z,95441.5
2022-07-27T10:19:39.859Z,95443.9
2022-07-27T10:20:42.065Z,95444.9
2022-07-27T10:21:48.532Z,95442.4
2022-07-27T10:22:51.033Z,95442.6
2022-07-27T10:23:53.234Z,95446.3
2022-07-27T10:24:55.719Z,95447.7
2022-07-27T10:25:58.206Z,95448.4
2022-07-27T10:27:00.404Z,95448.6
2022-07-27T10:28:02.616Z,95445.1
2022-07-27T10:29:05.099Z,95444
2022-07-27T10:30:07.319Z,95447.9
2022-07-27T10:31:09.969Z,95446.4
2022-07-27T10:32:12.256Z,95447.5
2022-07-27T10:33:14.737Z,95452.1
2022-07-27T10:34:17.344Z,95450.3
2022-07-27T10:35:19.833Z,95452
2022-07-27T10:36:22.302Z,95455
2022-07-27T10:37:25.535Z,95450
2022-07-27T10:38:27.432Z,95457.5
2022-07-27T10:39:29.392Z,95456.9
2022-07-27T10:40:31.021Z,95455.5
2022-07-27T10:41:32.393Z,95454.6
2022-07-27T10:42:34.889Z,95457.3
2022-07-27T10:43:37.398Z,95455.8
2022-07-27T10:44:39.589Z,95456.8
2022-07-27T10:46:47.118Z,95455.2
2022-07-27T10:47:49.460Z,95454.4
2022-07-27T10:48:51.692Z,95451
2022-07-27T10:49:53.421Z,95451
2022-07-27T10:50:55.345Z,95449.7
2022-07-27T10:51:57.561Z,95451.4
2022-07-27T10:53:01.477Z,95450.1
2022-07-27T10:55:08.666Z,95454.9
2022-07-27T10:56:11.148Z,95451.2
2022-07-27T10:57:13.614Z,95453.5
2022-07-27T10:58:15.544Z,95450.7
2022-07-27T10:59:17.453Z,95447.7
2022-07-27T11:00:21.856Z,95448.7
2022-07-27T11:01:24.274Z,95445.7
2022-07-27T11:02:27.778Z,95443.6
2022-07-27T11:03:30.036Z,95443.1
2022-07-27T11:04:32.144Z,95442.1
2022-07-27T11:10:59.411Z,95450
2022-07-27T11:12:01.630Z,95451.4
2022-07-27T11:14:09.472Z,95454
2022-07-27T11:15:11.960Z,95454.4
2022-07-27T11:19:29.987Z,95452
2022-07-27T11:20:33.373Z,95450.7
2022-07-27T11:21:35.843Z,95449.3
2022-07-27T11:24:48.328Z,95450
2022-07-27T11:26:55.528Z,95449.2
2022-07-27T11:27:57.455Z,95453.6
2022-07-27T11:28:59.657Z,95451.5
2022-07-27T11:30:02.134Z,95452.5
2022-07-27T11:31:05.554Z,95454.3
2022-07-27T11:32:08.341Z,95451.8
2022-07-27T11:33:10.680Z,95451.1
2022-07-27T11:34:14.962Z,95446.9
2022-07-27T11:36:23.275Z,95444.8
2022-07-27T11:37:25.756Z,95444.6
2022-07-27T11:38:27.669Z,95446.8
2022-07-27T11:42:45.271Z,95438.7
2022-07-27T11:43:48.798Z,95439.5
2022-07-27T11:44:52.531Z,95437.6
2022-07-27T11:45:57.810Z,95439
2022-07-27T11:48:05.417Z,95435.6
2022-07-27T11:50:13.487Z,95433.8
2022-07-27T11:51:16.090Z,95438.3
2022-07-27T11:52:18.128Z,95434.3
2022-07-27T11:53:20.263Z,95436
2022-07-27T11:54:22.177Z,95434.1
2022-07-27T11:55:24.402Z,95442.5
2022-07-27T11:56:29.101Z,95442.3
2022-07-27T11:57:31.312Z,95438.4
2022-07-27T11:58:33.523Z,95436.4
2022-07-27T11:59:35.460Z,95440.2
2022-07-27T12:00:37.933Z,95442
2022-07-27T12:01:39.880Z,95439.2
2022-07-27T12:02:42.961Z,95429.2
2022-07-27T12:04:51.300Z,95431.5
2022-07-27T12:05:53.867Z,95429.1
2022-07-27T12:06:56.371Z,95427
2022-07-27T12:07:58.594Z,95422.3
2022-07-27T12:09:00.797Z,95424.4
2022-07-27T12:10:03.189Z,95426.2
2022-07-27T12:11:05.667Z,95426.7
2022-07-27T12:12:07.592Z,95420.5
2022-07-27T12:13:10.197Z,95424.2
2022-07-27T12:14:12.681Z,95429.8
2022-07-27T12:16:20.215Z,95425.1
2022-07-27T12:17:22.753Z,95425.5
2022-07-27T12:18:24.680Z,95431
2022-07-27T12:19:26.331Z,95426.5
2022-07-27T12:20:28.540Z,95425.1
2022-07-27T12:22:35.799Z,95426.6
2022-07-27T12:23:38.302Z,95425.2
2022-07-27T12:24:40.200Z,95427.5
2022-07-27T12:25:42.417Z,95427.3
2022-07-27T12:26:44.894Z,95425.2
2022-07-27T12:27:46.817Z,95427.7
2022-07-27T12:28:49.736Z,95424.4
2022-07-27T12:29:52.212Z,95426
2022-07-27T12:30:54.732Z,95421.2
2022-07-27T12:31:56.797Z,95427
2022-07-27T12:32:59.314Z,95423.9
2022-07-27T12:35:06.279Z,95423.5
2022-07-27T12:36:08.229Z,95416.2
2022-07-27T12:37:10.466Z,95420.8
2022-07-27T12:38:12.403Z,95417.7
2022-07-27T12:39:16.358Z,95416.1
2022-07-27T12:40:18.291Z,95417.9
2022-07-27T12:41:20.502Z,95417.5
2022-07-27T12:42:22.725Z,95414.9
2022-07-27T12:43:24.655Z,95419.6
2022-07-27T12:44:26.565Z,95417.3
2022-07-27T12:45:28.936Z,95416.4
2022-07-27T12:46:31.690Z,95419.8
2022-07-27T12:47:34.403Z,95413.5
2022-07-27T12:48:36.643Z,95420.1
2022-07-27T12:50:43.966Z,95417.4
2022-07-27T12:51:46.189Z,95416.2
2022-07-27T12:52:50.500Z,95414.4
2022-07-27T12:53:52.782Z,95415.8
2022-07-27T12:54:55.260Z,95417.3
2022-07-27T12:55:57.468Z,95418.2
2022-07-27T12:56:59.667Z,95413.8
2022-07-27T12:58:01.911Z,95416.8
2022-07-27T12:59:04.402Z,95419.3
2022-07-27T13:00:06.713Z,95415.7
2022-07-27T13:01:09.408Z,95414.6
2022-07-27T13:02:12.030Z,95418.4
2022-07-27T13:03:14.619Z,95419.1
2022-07-27T13:04:16.809Z,95417.4
2022-07-27T13:05:19.728Z,95418.4
2022-07-27T13:06:21.395Z,95426
2022-07-27T13:07:23.334Z,95420.4
2022-07-27T13:08:25.402Z,95420.5
2022-07-27T13:10:32.336Z,95415.6
2022-07-27T13:11:34.526Z,95418.9
2022-07-27T13:12:36.728Z,95416.6
2022-07-27T13:13:38.925Z,95420.6
2022-07-27T13:15:46.132Z,95418.9
2022-07-27T13:16:51.362Z,95417.4
2022-07-27T13:17:53.819Z,95415.3
2022-07-27T13:18:56.298Z,95418.6
2022-07-27T13:19:58.764Z,95421.2
2022-07-27T13:21:01.270Z,95421.5
2022-07-27T13:22:03.751Z,95418.4
2022-07-27T13:23:05.965Z,95420.4
2022-07-27T13:24:09.969Z,95417.9
2022-07-27T13:26:17.180Z,95419.8
2022-07-27T13:27:18.837Z,95424.1
2022-07-27T13:28:21.008Z,95423.8
2022-07-27T13:29:23.205Z,95421.8
2022-07-27T13:30:25.751Z,95428.9
2022-07-27T13:31:28.040Z,95429.3
2022-07-27T13:32:30.735Z,95425.3
2022-07-27T13:33:32.846Z,95428.9
2022-07-27T13:34:35.318Z,95420
2022-07-27T13:35:37.809Z,95425.3
2022-07-27T13:36:40.282Z,95423
2022-07-27T13:37:42.494Z,95420.2
2022-07-27T13:38:44.682Z,95418.6
2022-07-27T13:39:46.903Z,95415
2022-07-27T13:40:49.387Z,95417.1
2022-07-27T13:42:56.331Z,95421.1
2022-07-27T13:43:58.821Z,95418.7
2022-07-27T13:46:06.659Z,95420.1
2022-07-27T13:47:08.698Z,95418
2022-07-27T13:48:10.894Z,95419.4
2022-07-27T13:49:16.228Z,95412.6
2022-07-27T13:50:21.523Z,95412
2022-07-27T13:51:23.731Z,95412.8
2022-07-27T13:52:25.936Z,95415.8
2022-07-27T13:53:28.408Z,95417.1
2022-07-27T13:54:30.340Z,95415
2022-07-27T13:55:32.817Z,95418.3
2022-07-27T13:56:35.029Z,95417.8
2022-07-27T13:57:37.509Z,95412.7
2022-07-27T13:58:40.274Z,95413.3
2022-07-27T13:59:42.196Z,95412.3
2022-07-27T14:00:44.477Z,95413.7
2022-07-27T14:01:47.958Z,95414
2022-07-27T14:02:52.421Z,95410.2
2022-07-27T14:03:55.846Z,95409.3
2022-07-27T14:04:59.948Z,95406.9
2022-07-27T14:07:12.762Z,95412.1
2022-07-27T14:08:14.970Z,95414.1